Airfield :
LOGIN :

Register | Disclaimer

   EN    FR    IT 

 










Legend :    VFR   Marginal VFR   IFR   Intensive IFR   Very Intensive IFR
Visi :
Ceiling :
>= 8 km
>= 3000ft
5 to 8 km
1000 to 3000 ft
1500m to 5 km
500 to 1000 ft
800 to 1500m
200 to 500 ft
< 800m
< 200 ft
Symbols :   Thunderstorms  Fog  Heavy snow  Heavy precipitations  Wind > 20 kt
SIGMETs :     Misc.  Thunderstorms  Icing  Turbulence  Mountain Waves  Volcanic Ashes






- Airport Elevation : 794 ft


LKCV - Čáslav Air Base

CURRENT METAR :
  • 081200Z 33005KT 9999 FEW026 BKN046 03/M05 Q1020 NOSIG RMK BLU BLU

EXPIRED METARs :
  • 081130Z 34005KT 9999 SCT019 BKN027 BKN070 03/M04 Q1020 NOSIG RMK BLU BLU
  • 081100Z 32006KT 9999 SCT017 BKN070 03/M02 Q1020 NOSIG RMK BLU BLU
  • 081030Z 31008KT 9999 SCT011 BKN070 02/M01 Q1020 NOSIG RMK BLU BLU
  • 081000Z 31009KT 9999 BKN009 BKN034 01/M01 Q1020 NOSIG RMK GRN GRN
  • 080930Z 31007KT 9000 OVC010 01/M01 Q1020 NOSIG RMK GRN GRN

TAF TAF LKCV
Valid from the 08 at 12:00 until the 09 at 12:00 UTC


081100Z 0812/0912 33007KT 9999 BKN040
PROB30
TEMPO 0812/0816 6000 SHRASN BKN020
BECMG 0813/0815 03005KT
BECMG 0816/0818 VRB02KT CAVOK
BECMG 0907/0909 14005KT



MET'MAP, your aeronautical weather chart ! - Copyright ORBIFLY December 2007 - Disclaimer

ORBIFLY MET'MAP TEAM :

Programming & Development : Alexandra Zaïnal
Concept & original design : Baudouin d'Aumeries
Assistance for programming : Marc-Olivier Méhu
Technical & hardware support : Manuel Goepfert

Contact : metmap@orbifly.com




SOURCES & CREDITS :

   NOAA